Darstellungsparameter: Aktuell verwendete Einstellungen:
Skalierung der Graphiken ... ?
xyx+y,   Skalierungsfaktor:      Skalierung: Modus: x, Faktor: 1
Darstellungszeitraum ... ?
Vom - - bis: - -   Zeitraum: 01.05.2022 - 01.05.2022
Min/Max/Avg-Anzeige ... ?
Zeige MMA aktuell
Zeige MMA Monat
Zeige MMA alles
Zeige --A aktuell
Zeige --A Monat
Zeige --A alles
Keine MMA-Anzeige
MMA:
Average (ber die Originaldaten)
MMA-Basis: 01.05.2022 - 01.05.2022
Quicknavigation für Darstellung... ?
Tage:      1T, 2T, 3T, 5T -1T -2T -3T -5T +1T +2T +3T +5T
Wochen: 1W, 2W, 3W -1W -2W -3W +1W +2W +3W
Monate: 1M, 3M, 6M -1M -3M -6M +1M +3M +6M
Jahre:    1J, 3J, 5J, 10J -1J -3J -5J -10J +1J +3J +5J +10J
Nutze für die Darstellung ... ?
Originaldaten oder Mittelwerte auf ...
Stundenbasis Tagesbasis Wochenbasis
Monatsbasis Jahresbasis      Datenbasis: Original-Daten
Darstellen als:
Statistik (Auto) Statistik J:M      Darstellung:
Zur Graphik,    zurück zur Übersicht aller Sensoren.
 
Tabellarische Datenbersicht: ?
 
Sensor: Nr:Datum:Temp:Abs-Feuchte:Windchill:Wind:
Aussen-T/F 1 01-05-2022 00:00:00 9 C 7.49 g/m*3 9 C 3.2 km/h
2 01-05-2022 00:05:00 8.9 C 7.45 g/m*3 8.9 C 3.2 km/h
3 01-05-2022 00:10:00 8.8 C 7.4 g/m*3 8.8 C 4.8 km/h
4 01-05-2022 00:15:00 8.7 C 7.35 g/m*3 8.7 C 1.6 km/h
5 01-05-2022 00:20:00 8.6 C 7.22 g/m*3 8.6 C 0 km/h
6 01-05-2022 00:25:00 8.5 C 7.26 g/m*3 8.5 C 1.6 km/h
7 01-05-2022 00:30:00 8.4 C 7.21 g/m*3 8.4 C 1.6 km/h
8 01-05-2022 00:35:00 8.3 C 7.16 g/m*3 8.3 C 0 km/h
9 01-05-2022 00:40:00 8.2 C 7.12 g/m*3 8.2 C 0 km/h
10 01-05-2022 00:45:00 8.1 C 7.07 g/m*3 8.1 C 0 km/h
11 01-05-2022 00:50:00 8.1 C 7.16 g/m*3 8.1 C 0 km/h
12 01-05-2022 00:55:00 8 C 7.11 g/m*3 8 C 0 km/h
13 01-05-2022 01:00:00 8 C 7.19 g/m*3 8 C 0 km/h
14 01-05-2022 01:05:00 8.1 C 7.24 g/m*3 8.1 C 0 km/h
15 01-05-2022 01:10:00 8.1 C 7.24 g/m*3 8.1 C 0 km/h
16 01-05-2022 01:15:00 8.1 C 7.24 g/m*3 8.1 C 1.6 km/h
17 01-05-2022 01:20:00 8.1 C 7.24 g/m*3 8.1 C 0 km/h
18 01-05-2022 01:25:00 8.1 C 7.24 g/m*3 8.1 C 0 km/h
19 01-05-2022 01:30:00 8.1 C 7.24 g/m*3 8.1 C 0 km/h
20 01-05-2022 01:35:00 8.1 C 7.24 g/m*3 8.1 C 0 km/h
21 01-05-2022 01:40:00 8.1 C 7.24 g/m*3 8.1 C 0 km/h
22 01-05-2022 01:45:00 8.1 C 7.24 g/m*3 8.1 C 0 km/h
23 01-05-2022 01:50:00 8.1 C 7.16 g/m*3 8.1 C 0 km/h
24 01-05-2022 01:55:00 8 C 7.11 g/m*3 8 C 0 km/h
25 01-05-2022 02:00:00 7.9 C 7.06 g/m*3 7.9 C 0 km/h
Sensor: Nr:Datum:Temp:Abs-Feuchte:Windchill:Wind:
Aussen-T/F 26 01-05-2022 02:05:00 7.8 C 7.02 g/m*3 7.8 C 0 km/h
27 01-05-2022 02:10:00 7.7 C 6.97 g/m*3 7.7 C 3.2 km/h
28 01-05-2022 02:15:00 7.5 C 6.88 g/m*3 7.5 C 0 km/h
29 01-05-2022 02:20:00 7.3 C 6.79 g/m*3 7.3 C 1.6 km/h
30 01-05-2022 02:25:00 7.1 C 6.71 g/m*3 7.1 C 1.6 km/h
31 01-05-2022 02:30:00 7.1 C 6.79 g/m*3 7.1 C 4.8 km/h
32 01-05-2022 02:35:00 7 C 6.74 g/m*3 7 C 1.6 km/h
33 01-05-2022 02:40:00 6.9 C 6.7 g/m*3 6.9 C 1.6 km/h
34 01-05-2022 02:45:00 6.9 C 6.7 g/m*3 6.9 C 0 km/h
35 01-05-2022 02:50:00 6.8 C 6.65 g/m*3 6.8 C 1.6 km/h
36 01-05-2022 02:55:00 6.8 C 6.73 g/m*3 6.8 C 0 km/h
37 01-05-2022 03:00:00 6.8 C 6.73 g/m*3 6.8 C 0 km/h
38 01-05-2022 03:05:00 6.8 C 6.73 g/m*3 6.8 C 1.6 km/h
39 01-05-2022 03:10:00 6.8 C 6.81 g/m*3 6.8 C 0 km/h
40 01-05-2022 03:15:00 6.8 C 6.81 g/m*3 6.8 C 0 km/h
41 01-05-2022 03:20:00 6.9 C 6.85 g/m*3 6.9 C 0 km/h
42 01-05-2022 03:25:00 6.9 C 6.85 g/m*3 6.9 C 0 km/h
43 01-05-2022 03:30:00 6.9 C 6.85 g/m*3 6.9 C 0 km/h
44 01-05-2022 03:35:00 6.9 C 6.85 g/m*3 6.9 C 0 km/h
45 01-05-2022 03:40:00 6.9 C 6.85 g/m*3 6.9 C 1.6 km/h
46 01-05-2022 03:45:00 7 C 6.97 g/m*3 7 C 0 km/h
47 01-05-2022 03:50:00 7 C 6.97 g/m*3 7 C 0 km/h
48 01-05-2022 03:55:00 7.1 C 7.02 g/m*3 7.1 C 0 km/h
49 01-05-2022 04:00:00 7.1 C 7.02 g/m*3 7.1 C 1.6 km/h
50 01-05-2022 04:05:00 7.2 C 6.99 g/m*3 7.2 C 3.2 km/h
Sensor: Nr:Datum:Temp:Abs-Feuchte:Windchill:Wind:
Aussen-T/F 51 01-05-2022 04:10:00 7.2 C 6.99 g/m*3 7.2 C 1.6 km/h
52 01-05-2022 04:15:00 7.3 C 6.95 g/m*3 7.3 C 0 km/h
53 01-05-2022 04:20:00 7.3 C 6.95 g/m*3 7.3 C 0 km/h
54 01-05-2022 04:25:00 7.4 C 7 g/m*3 7.4 C 0 km/h
55 01-05-2022 04:30:00 7.4 C 7 g/m*3 7.4 C 0 km/h
56 01-05-2022 04:35:00 7.4 C 7 g/m*3 7.4 C 0 km/h
57 01-05-2022 04:40:00 7.4 C 7 g/m*3 7.4 C 0 km/h
58 01-05-2022 04:45:00 7.4 C 7 g/m*3 7.4 C 0 km/h
59 01-05-2022 04:50:00 7.4 C 7 g/m*3 7.4 C 0 km/h
60 01-05-2022 04:55:00 7.4 C 7 g/m*3 7.4 C 0 km/h
61 01-05-2022 05:00:00 7.4 C 7 g/m*3 7.4 C 0 km/h
62 01-05-2022 05:05:00 7.4 C 7 g/m*3 7.4 C 0 km/h
63 01-05-2022 05:10:00 7.4 C 7 g/m*3 7.4 C 0 km/h
64 01-05-2022 05:15:00 7.4 C 7 g/m*3 7.4 C 0 km/h
65 01-05-2022 05:20:00 7.4 C 7 g/m*3 7.4 C 0 km/h
66 01-05-2022 05:25:00 7.4 C 7 g/m*3 7.4 C 0 km/h
67 01-05-2022 05:30:00 7.4 C 7 g/m*3 7.4 C 0 km/h
68 01-05-2022 05:35:00 7.3 C 6.95 g/m*3 7.3 C 0 km/h
69 01-05-2022 05:40:00 7.3 C 6.95 g/m*3 7.3 C 0 km/h
70 01-05-2022 05:45:00 7.3 C 7.03 g/m*3 7.3 C 0 km/h
71 01-05-2022 05:50:00 7.3 C 7.03 g/m*3 7.3 C 3.2 km/h
72 01-05-2022 05:55:00 7.2 C 6.99 g/m*3 7.2 C 0 km/h
73 01-05-2022 06:00:00 7.2 C 6.99 g/m*3 7.2 C 0 km/h
74 01-05-2022 06:05:00 7.2 C 6.99 g/m*3 7.2 C 0 km/h
75 01-05-2022 06:10:00 7.2 C 6.99 g/m*3 7.2 C 0 km/h
Sensor: Nr:Datum:Temp:Abs-Feuchte:Windchill:Wind:
Aussen-T/F 76 01-05-2022 06:15:00 7.2 C 6.99 g/m*3 7.2 C 0 km/h
77 01-05-2022 06:20:00 7.2 C 6.99 g/m*3 7.2 C 0 km/h
78 01-05-2022 06:25:00 7.2 C 6.99 g/m*3 7.2 C 0 km/h
79 01-05-2022 06:30:00 7.2 C 6.99 g/m*3 7.2 C 1.6 km/h
80 01-05-2022 06:35:00 7.2 C 6.99 g/m*3 7.2 C 4.8 km/h
81 01-05-2022 06:40:00 7.3 C 6.95 g/m*3 7.3 C 0 km/h
82 01-05-2022 06:45:00 7.3 C 6.95 g/m*3 7.3 C 1.6 km/h
83 01-05-2022 06:50:00 7.4 C 7 g/m*3 7.4 C 0 km/h
84 01-05-2022 06:55:00 7.5 C 7.12 g/m*3 7.5 C 0 km/h
85 01-05-2022 07:00:00 7.6 C 7.09 g/m*3 6.6 C 6.4 km/h
86 01-05-2022 07:05:00 7.6 C 7.09 g/m*3 7.6 C 1.6 km/h
87 01-05-2022 07:10:00 7.7 C 7.05 g/m*3 7.7 C 0 km/h
88 01-05-2022 07:15:00 7.7 C 7.05 g/m*3 7.7 C 0 km/h
89 01-05-2022 07:20:00 7.8 C 7.1 g/m*3 7.8 C 0 km/h
90 01-05-2022 07:25:00 7.9 C 7.15 g/m*3 7.9 C 1.6 km/h
91 01-05-2022 07:30:00 7.9 C 7.15 g/m*3 7.9 C 1.6 km/h
92 01-05-2022 07:35:00 8.1 C 7.24 g/m*3 8.1 C 0 km/h
93 01-05-2022 07:40:00 8.1 C 7.16 g/m*3 8.1 C 0 km/h
94 01-05-2022 07:45:00 8.2 C 7.2 g/m*3 8.2 C 0 km/h
95 01-05-2022 07:50:00 8.2 C 7.2 g/m*3 8.2 C 0 km/h
96 01-05-2022 07:55:00 8.3 C 7.25 g/m*3 8.3 C 0 km/h
97 01-05-2022 08:00:00 8.3 C 7.25 g/m*3 8.3 C 0 km/h
98 01-05-2022 08:05:00 8.2 C 7.2 g/m*3 8.2 C 0 km/h
99 01-05-2022 08:10:00 8.2 C 7.2 g/m*3 8.2 C 0 km/h
100 01-05-2022 08:15:00 8.2 C 7.2 g/m*3 8.2 C 0 km/h
Sensor: Nr:Datum:Temp:Abs-Feuchte:Windchill:Wind:
Aussen-T/F 101 01-05-2022 08:20:00 8.2 C 7.29 g/m*3 8.2 C 0 km/h
102 01-05-2022 08:25:00 8.2 C 7.29 g/m*3 8.2 C 0 km/h
103 01-05-2022 08:30:00 8.1 C 7.24 g/m*3 7.17 C 6.4 km/h
104 01-05-2022 08:35:00 8.1 C 7.24 g/m*3 8.1 C 0 km/h
105 01-05-2022 08:40:00 8.1 C 7.32 g/m*3 8.1 C 0 km/h
106 01-05-2022 08:45:00 8.1 C 7.32 g/m*3 8.1 C 0 km/h
107 01-05-2022 08:50:00 8.2 C 7.37 g/m*3 8.2 C 0 km/h
108 01-05-2022 08:55:00 8.2 C 7.37 g/m*3 8.2 C 0 km/h
109 01-05-2022 09:00:00 8.2 C 7.37 g/m*3 8.2 C 0 km/h
110 01-05-2022 09:05:00 8.3 C 7.5 g/m*3 8.3 C 0 km/h
111 01-05-2022 09:10:00 8.3 C 7.5 g/m*3 8.3 C 0 km/h
112 01-05-2022 09:15:00 8.4 C 7.55 g/m*3 8.4 C 0 km/h
113 01-05-2022 09:20:00 8.5 C 7.6 g/m*3 8.5 C 0 km/h
114 01-05-2022 09:25:00 8.6 C 7.56 g/m*3 8.6 C 0 km/h
115 01-05-2022 09:30:00 8.8 C 7.66 g/m*3 8.8 C 0 km/h
116 01-05-2022 09:35:00 8.9 C 7.71 g/m*3 8.9 C 0 km/h
117 01-05-2022 09:40:00 9.3 C 7.73 g/m*3 9.3 C 3.2 km/h
118 01-05-2022 09:45:00 9.7 C 7.74 g/m*3 9.7 C 3.2 km/h
119 01-05-2022 09:50:00 10 C 7.71 g/m*3 10 C 4.8 km/h
120 01-05-2022 09:55:00 10.3 C 7.85 g/m*3 10.3 C 1.6 km/h
121 01-05-2022 10:00:00 10.7 C 8.05 g/m*3 10.7 C 3.2 km/h
122 01-05-2022 10:05:00 10.8 C 7.81 g/m*3 10.8 C 3.2 km/h
123 01-05-2022 10:10:00 10.9 C 7.86 g/m*3 10.9 C 1.6 km/h
124 01-05-2022 10:15:00 11 C 7.81 g/m*3 11 C 0 km/h
125 01-05-2022 10:20:00 11.1 C 7.86 g/m*3 11.1 C 6.4 km/h
Sensor: Nr:Datum:Temp:Abs-Feuchte:Windchill:Wind:
Aussen-T/F 126 01-05-2022 10:25:00 11.2 C 7.91 g/m*3 11.2 C 4.8 km/h
127 01-05-2022 10:30:00 11.4 C 8.01 g/m*3 11.4 C 0 km/h
128 01-05-2022 10:35:00 11.6 C 8 g/m*3 11.6 C 1.6 km/h
129 01-05-2022 10:40:00 11.8 C 8.1 g/m*3 11.8 C 1.6 km/h
130 01-05-2022 10:45:00 12 C 8.1 g/m*3 12 C 1.6 km/h
131 01-05-2022 10:50:00 12.2 C 8.09 g/m*3 12.2 C 1.6 km/h
132 01-05-2022 10:55:00 12.3 C 8.14 g/m*3 12.3 C 1.6 km/h
133 01-05-2022 11:00:00 12.4 C 8.19 g/m*3 12.4 C 1.6 km/h
134 01-05-2022 11:05:00 12.7 C 8.24 g/m*3 12.7 C 1.6 km/h
135 01-05-2022 11:10:00 12.8 C 8.18 g/m*3 12.8 C 6.4 km/h
136 01-05-2022 11:15:00 12.8 C 8.29 g/m*3 12.8 C 3.2 km/h
137 01-05-2022 11:20:00 13 C 8.28 g/m*3 13 C 1.6 km/h
138 01-05-2022 11:25:00 13.2 C 8.38 g/m*3 13.2 C 0 km/h
139 01-05-2022 11:30:00 13.4 C 8.14 g/m*3 13.4 C 4.8 km/h
140 01-05-2022 11:35:00 13.6 C 8.24 g/m*3 13.6 C 4.8 km/h
141 01-05-2022 11:40:00 13.7 C 8.29 g/m*3 13.7 C 3.2 km/h
142 01-05-2022 11:45:00 13.8 C 8.34 g/m*3 13.8 C 3.2 km/h
143 01-05-2022 11:50:00 14 C 8.32 g/m*3 14 C 1.6 km/h
144 01-05-2022 11:55:00 14.2 C 8.3 g/m*3 14.2 C 0 km/h
145 01-05-2022 12:00:00 14.3 C 8.23 g/m*3 14.3 C 6.4 km/h
146 01-05-2022 12:05:00 14.3 C 8.11 g/m*3 14.3 C 6.4 km/h
147 01-05-2022 12:10:00 14.4 C 8.28 g/m*3 14.4 C 6.4 km/h
148 01-05-2022 12:15:00 14.6 C 8.13 g/m*3 14.6 C 14.5 km/h
149 01-05-2022 12:20:00 14.6 C 8.26 g/m*3 14.6 C 6.4 km/h
150 01-05-2022 12:25:00 14.6 C 8.13 g/m*3 14.6 C 3.2 km/h
Sensor: Nr:Datum:Temp:Abs-Feuchte:Windchill:Wind:
Aussen-T/F 151 01-05-2022 12:30:00 14.8 C 8.49 g/m*3 14.8 C 0 km/h
152 01-05-2022 12:35:00 14.9 C 8.03 g/m*3 14.9 C 12.9 km/h
153 01-05-2022 12:40:00 14.8 C 8.11 g/m*3 14.8 C 6.4 km/h
154 01-05-2022 12:45:00 14.8 C 8.23 g/m*3 14.8 C 6.4 km/h
155 01-05-2022 12:50:00 15 C 8.46 g/m*3 15 C 8.1 km/h
156 01-05-2022 12:55:00 15.1 C 8.39 g/m*3 15.1 C 9.7 km/h
157 01-05-2022 13:00:00 15.1 C 8.26 g/m*3 15.1 C 9.7 km/h
158 01-05-2022 13:05:00 15.2 C 8.31 g/m*3 15.2 C 11.3 km/h
159 01-05-2022 13:10:00 15.2 C 8.31 g/m*3 15.2 C 11.3 km/h
160 01-05-2022 13:15:00 15.2 C 8.31 g/m*3 15.2 C 4.8 km/h
161 01-05-2022 13:20:00 15.2 C 8.31 g/m*3 15.2 C 11.3 km/h
162 01-05-2022 13:25:00 15.2 C 8.44 g/m*3 15.2 C 6.4 km/h
163 01-05-2022 13:30:00 15.2 C 8.18 g/m*3 15.2 C 14.5 km/h
164 01-05-2022 13:35:00 15.2 C 8.31 g/m*3 15.2 C 9.7 km/h
165 01-05-2022 13:40:00 15.3 C 8.1 g/m*3 15.3 C 4.8 km/h
166 01-05-2022 13:45:00 15.4 C 8.28 g/m*3 15.4 C 3.2 km/h
167 01-05-2022 13:50:00 15.7 C 8.3 g/m*3 15.7 C 6.4 km/h
168 01-05-2022 13:55:00 15.9 C 8.4 g/m*3 15.9 C 11.3 km/h
169 01-05-2022 14:00:00 16 C 8.17 g/m*3 16 C 6.4 km/h
170 01-05-2022 14:05:00 16.1 C 8.36 g/m*3 16.1 C 9.7 km/h
171 01-05-2022 14:10:00 16.2 C 8.14 g/m*3 16.2 C 8.1 km/h
172 01-05-2022 14:15:00 16.2 C 8.27 g/m*3 16.2 C 8.1 km/h
173 01-05-2022 14:20:00 16.2 C 8.27 g/m*3 16.2 C 6.4 km/h
174 01-05-2022 14:25:00 16.1 C 8.5 g/m*3 16.1 C 11.3 km/h
175 01-05-2022 14:30:00 16.2 C 8.27 g/m*3 16.2 C 6.4 km/h
Sensor: Nr:Datum:Temp:Abs-Feuchte:Windchill:Wind:
Aussen-T/F 176 01-05-2022 14:35:00 16.4 C 8.51 g/m*3 16.4 C 11.3 km/h
177 01-05-2022 14:40:00 16.6 C 8.33 g/m*3 16.6 C 11.3 km/h
178 01-05-2022 14:45:00 16.7 C 8.38 g/m*3 16.7 C 12.9 km/h
179 01-05-2022 14:50:00 16.6 C 8.05 g/m*3 16.6 C 9.7 km/h
180 01-05-2022 14:55:00 16.6 C 8.33 g/m*3 16.6 C 9.7 km/h
181 01-05-2022 15:00:00 16.8 C 8.29 g/m*3 16.8 C 11.3 km/h
182 01-05-2022 15:05:00 17 C 8.39 g/m*3 17 C 9.7 km/h
183 01-05-2022 15:10:00 16.9 C 8.34 g/m*3 16.9 C 9.7 km/h
184 01-05-2022 15:15:00 16.8 C 8.29 g/m*3 16.8 C 9.7 km/h
185 01-05-2022 15:20:00 16.6 C 8.33 g/m*3 16.6 C 6.4 km/h
186 01-05-2022 15:25:00 16.4 C 8.1 g/m*3 16.4 C 6.4 km/h
187 01-05-2022 15:30:00 16.3 C 8.19 g/m*3 16.3 C 1.6 km/h
188 01-05-2022 15:35:00 16.3 C 8.19 g/m*3 16.3 C 11.3 km/h
189 01-05-2022 15:40:00 16.3 C 8.32 g/m*3 16.3 C 6.4 km/h
190 01-05-2022 15:45:00 16.2 C 8 g/m*3 16.2 C 11.3 km/h
191 01-05-2022 15:50:00 16.2 C 8.14 g/m*3 16.2 C 4.8 km/h
192 01-05-2022 15:55:00 16.3 C 8.46 g/m*3 16.3 C 3.2 km/h
193 01-05-2022 16:00:00 16.5 C 8.14 g/m*3 16.5 C 9.7 km/h
194 01-05-2022 16:05:00 16.4 C 7.96 g/m*3 16.4 C 6.4 km/h
195 01-05-2022 16:10:00 16.4 C 8.1 g/m*3 16.4 C 6.4 km/h
196 01-05-2022 16:15:00 16.4 C 7.96 g/m*3 16.4 C 9.7 km/h
197 01-05-2022 16:20:00 16.5 C 8.28 g/m*3 16.5 C 3.2 km/h
198 01-05-2022 16:25:00 16.6 C 8.05 g/m*3 16.6 C 6.4 km/h
199 01-05-2022 16:30:00 16.7 C 8.24 g/m*3 16.7 C 1.6 km/h
200 01-05-2022 16:35:00 16.8 C 8.29 g/m*3 16.8 C 4.8 km/h
Sensor: Nr:Datum:Temp:Abs-Feuchte:Windchill:Wind:
Aussen-T/F 201 01-05-2022 16:40:00 16.8 C 8.01 g/m*3 16.8 C 3.2 km/h
202 01-05-2022 16:45:00 16.7 C 8.38 g/m*3 16.7 C 1.6 km/h
203 01-05-2022 16:50:00 16.7 C 8.24 g/m*3 16.7 C 3.2 km/h
204 01-05-2022 16:55:00 16.7 C 8.1 g/m*3 16.7 C 4.8 km/h
205 01-05-2022 17:00:00 16.7 C 8.24 g/m*3 16.7 C 6.4 km/h
206 01-05-2022 17:05:00 16.8 C 8.01 g/m*3 16.8 C 9.7 km/h
207 01-05-2022 17:10:00 16.8 C 8.29 g/m*3 16.8 C 9.7 km/h
208 01-05-2022 17:15:00 16.7 C 8.1 g/m*3 16.7 C 9.7 km/h
209 01-05-2022 17:20:00 16.6 C 8.05 g/m*3 16.6 C 9.7 km/h
210 01-05-2022 17:25:00 16.6 C 8.33 g/m*3 16.6 C 6.4 km/h
211 01-05-2022 17:30:00 16.6 C 8.19 g/m*3 16.6 C 9.7 km/h
212 01-05-2022 17:35:00 16.5 C 8.14 g/m*3 16.5 C 6.4 km/h
213 01-05-2022 17:40:00 16.4 C 8.1 g/m*3 16.4 C 4.8 km/h
214 01-05-2022 17:45:00 16.4 C 8.1 g/m*3 16.4 C 4.8 km/h
215 01-05-2022 17:50:00 16.3 C 7.91 g/m*3 16.3 C 11.3 km/h
216 01-05-2022 17:55:00 16.3 C 8.19 g/m*3 16.3 C 9.7 km/h
217 01-05-2022 18:00:00 16.2 C 8.14 g/m*3 16.2 C 9.7 km/h
218 01-05-2022 18:05:00 16 C 7.9 g/m*3 16 C 11.3 km/h
219 01-05-2022 18:10:00 15.8 C 7.81 g/m*3 15.8 C 11.3 km/h
220 01-05-2022 18:15:00 15.8 C 8.21 g/m*3 15.8 C 6.4 km/h
221 01-05-2022 18:20:00 15.7 C 8.03 g/m*3 15.7 C 11.3 km/h
222 01-05-2022 18:25:00 15.7 C 8.16 g/m*3 15.7 C 11.3 km/h
223 01-05-2022 18:30:00 15.6 C 7.98 g/m*3 15.6 C 4.8 km/h
224 01-05-2022 18:35:00 15.5 C 8.06 g/m*3 15.5 C 6.4 km/h
225 01-05-2022 18:40:00 15.5 C 7.93 g/m*3 15.5 C 8.1 km/h
Sensor: Nr:Datum:Temp:Abs-Feuchte:Windchill:Wind:
Aussen-T/F 226 01-05-2022 18:45:00 15.4 C 8.01 g/m*3 15.4 C 8.1 km/h
227 01-05-2022 18:50:00 15.3 C 7.84 g/m*3 15.3 C 11.3 km/h
228 01-05-2022 18:55:00 15.3 C 7.97 g/m*3 15.3 C 6.4 km/h
229 01-05-2022 19:00:00 15.2 C 7.79 g/m*3 15.2 C 8.1 km/h
230 01-05-2022 19:05:00 15.2 C 7.92 g/m*3 15.2 C 6.4 km/h
231 01-05-2022 19:10:00 15.2 C 7.92 g/m*3 15.2 C 4.8 km/h
232 01-05-2022 19:15:00 15.2 C 7.92 g/m*3 15.2 C 1.6 km/h
233 01-05-2022 19:20:00 15.2 C 8.18 g/m*3 15.2 C 0 km/h
234 01-05-2022 19:25:00 15.1 C 7.87 g/m*3 15.1 C 4.8 km/h
235 01-05-2022 19:30:00 15.1 C 8.26 g/m*3 15.1 C 0 km/h
236 01-05-2022 19:35:00 15.2 C 8.7 g/m*3 15.2 C 0 km/h
237 01-05-2022 19:40:00 15.2 C 8.83 g/m*3 15.2 C 0 km/h
238 01-05-2022 19:45:00 15.1 C 8.51 g/m*3 15.1 C 0 km/h
239 01-05-2022 19:50:00 15 C 8.59 g/m*3 15 C 0 km/h
240 01-05-2022 19:55:00 15 C 8.98 g/m*3 15 C 0 km/h
241 01-05-2022 20:00:00 14.9 C 9.05 g/m*3 14.9 C 0 km/h
242 01-05-2022 20:05:00 14.8 C 9.12 g/m*3 14.8 C 0 km/h
243 01-05-2022 20:10:00 14.7 C 9.07 g/m*3 14.7 C 0 km/h
244 01-05-2022 20:15:00 14.6 C 9.01 g/m*3 14.6 C 0 km/h
245 01-05-2022 20:20:00 14.4 C 9.02 g/m*3 14.4 C 0 km/h
246 01-05-2022 20:25:00 14.2 C 8.3 g/m*3 14.2 C 8.1 km/h
247 01-05-2022 20:30:00 14.1 C 8.13 g/m*3 14.1 C 3.2 km/h
248 01-05-2022 20:35:00 14 C 8.08 g/m*3 14 C 4.8 km/h
249 01-05-2022 20:40:00 14 C 8.32 g/m*3 14 C 0 km/h
250 01-05-2022 20:45:00 14 C 8.56 g/m*3 14 C 0 km/h
Sensor: Nr:Datum:Temp:Abs-Feuchte:Windchill:Wind:
Aussen-T/F 251 01-05-2022 20:50:00 13.8 C 8.46 g/m*3 13.8 C 0 km/h
252 01-05-2022 20:55:00 13.7 C 8.64 g/m*3 13.7 C 0 km/h
253 01-05-2022 21:00:00 13.6 C 8.59 g/m*3 13.6 C 0 km/h
254 01-05-2022 21:05:00 13.4 C 8.37 g/m*3 13.4 C 0 km/h
255 01-05-2022 21:10:00 13.3 C 7.86 g/m*3 13.3 C 4.8 km/h
256 01-05-2022 21:15:00 13.2 C 8.15 g/m*3 13.2 C 3.2 km/h
257 01-05-2022 21:20:00 13.1 C 8.22 g/m*3 13.1 C 0 km/h
258 01-05-2022 21:25:00 12.8 C 8.18 g/m*3 12.8 C 4.8 km/h
259 01-05-2022 21:30:00 12.5 C 8.03 g/m*3 12.5 C 1.6 km/h
260 01-05-2022 21:35:00 12.3 C 8.04 g/m*3 12.3 C 3.2 km/h
261 01-05-2022 21:40:00 12 C 7.99 g/m*3 12 C 4.8 km/h
262 01-05-2022 21:45:00 11.8 C 7.89 g/m*3 11.8 C 4.8 km/h
263 01-05-2022 21:50:00 11.6 C 7.9 g/m*3 11.6 C 0 km/h
264 01-05-2022 21:55:00 11.4 C 8.01 g/m*3 11.4 C 1.6 km/h
265 01-05-2022 22:00:00 11.3 C 8.06 g/m*3 11.3 C 0 km/h
266 01-05-2022 22:05:00 11.2 C 8.01 g/m*3 11.2 C 0 km/h
267 01-05-2022 22:10:00 11.2 C 8.11 g/m*3 11.2 C 0 km/h
268 01-05-2022 22:15:00 11.1 C 8.16 g/m*3 11.1 C 6.4 km/h
269 01-05-2022 22:20:00 11 C 8.01 g/m*3 11 C 0 km/h
270 01-05-2022 22:25:00 11 C 8.11 g/m*3 11 C 3.2 km/h
271 01-05-2022 22:30:00 11 C 8.01 g/m*3 11 C 3.2 km/h
272 01-05-2022 22:35:00 10.9 C 7.96 g/m*3 10.9 C 0 km/h
273 01-05-2022 22:40:00 10.9 C 7.96 g/m*3 10.9 C 1.6 km/h
274 01-05-2022 22:45:00 10.9 C 7.96 g/m*3 10.9 C 3.2 km/h
275 01-05-2022 22:50:00 10.9 C 7.86 g/m*3 10.9 C 0 km/h
Sensor: Nr:Datum:Temp:Abs-Feuchte:Windchill:Wind:
Aussen-T/F 276 01-05-2022 22:55:00 10.9 C 7.86 g/m*3 10.9 C 1.6 km/h
277 01-05-2022 23:00:00 10.9 C 7.86 g/m*3 10.9 C 0 km/h
278 01-05-2022 23:05:00 10.8 C 7.81 g/m*3 10.8 C 0 km/h
279 01-05-2022 23:10:00 10.7 C 7.76 g/m*3 10.7 C 0 km/h
280 01-05-2022 23:15:00 10.6 C 7.81 g/m*3 10.6 C 0 km/h
281 01-05-2022 23:20:00 10.4 C 7.81 g/m*3 10.4 C 0 km/h
282 01-05-2022 23:25:00 10.3 C 7.76 g/m*3 10.3 C 0 km/h
283 01-05-2022 23:30:00 10.2 C 7.8 g/m*3 10.2 C 0 km/h
284 01-05-2022 23:35:00 10.1 C 7.75 g/m*3 10.1 C 0 km/h
285 01-05-2022 23:40:00 9.9 C 7.66 g/m*3 9.9 C 3.2 km/h
286 01-05-2022 23:45:00 9.8 C 7.61 g/m*3 9.8 C 0 km/h
287 01-05-2022 23:50:00 9.7 C 7.56 g/m*3 9.7 C 0 km/h
288 01-05-2022 23:55:00 9.7 C 7.56 g/m*3 9.7 C 1.6 km/h

Legende:
   Min
   Max


Maximal/Minimal-Werte vom 01.05.2022 - 01.05.2022

Sensor Min Max Avg
Temp
(Aussen-T/F)
6.8 °C
01-05-2022  02:50:00
17 °C
01-05-2022  15:05:00
11.55 °C
Abs-Feuchte
(Aussen-T/F)
6.65 g/m*3
01-05-2022  02:50:00
9.12 g/m*3
01-05-2022  20:05:00
7.7 g/m*3
Windchill
(Aussen-T/F)
6.6 C
01-05-2022  07:00:00
17 C
01-05-2022  15:05:00
11.51 C

Die Daten stammen von einer Davis Vantage Pro 2 Wetter-Station und werden unter Linux mit der Software wview2wettercgi und aufbereitet. Alle Angaben erfolgen ohne Gewähr für ihre Vollständigkeit oder Richtigkeit.
Kontakt: Rainer Krienke krienke@uni-koblenz.de . Meine Webseiten an der Uni Koblenz oder privat.
Version: $Revision: 0.78 $